Time;durP1;ratioP1;P1;durP2;ratioP2;P2;SDS_P1;SDS_P2;PMS_P1;PMS_P2;Temp;Humidity;BMP_temperature;BMP_pressure;BME280_temperature;BME280_humidity;BME280_pressure;Samples;Min_cycle;Max_cycle;Signal;HPM_P1;HPM_P2
2022/10/26 04:02:31;;;;;;;11.33;10.10;;;;;;;;;;5014222;23;20541;-86
2022/10/26 04:05:01;;;;;;;11.50;10.25;;;;;;;;;;5022177;28;20418;-87
2022/10/26 04:07:27;;;;;;;10.88;9.70;;;;;;;;;;5015264;28;20866;-86
2022/10/26 04:09:53;;;;;;;8.90;8.20;;;;;;;;;;5025580;28;20466;-85
2022/10/26 04:12:19;;;;;;;8.18;7.47;;;;;;;;;;5033341;28;20741;-85
2022/10/26 04:14:45;;;;;;;7.32;6.72;;;;;;;;;;5016908;28;20383;-85
2022/10/26 04:17:11;;;;;;;13.02;11.00;;;;;;;;;;5035643;28;20788;-86
2022/10/26 04:19:37;;;;;;;8.50;7.70;;;;;;;;;;5029968;28;20393;-84
2022/10/26 04:22:03;;;;;;;8.10;7.30;;;;;;;;;;5031881;28;20419;-85
2022/10/26 04:24:28;;;;;;;7.85;7.07;;;;;;;;;;5033610;28;20379;-85
2022/10/26 04:26:57;;;;;;;7.77;7.07;;;;;;;;;;5033288;28;20465;-86
2022/10/26 04:29:25;;;;;;;8.68;6.97;;;;;;;;;;5023659;28;20369;-86
2022/10/26 04:31:51;;;;;;;8.15;6.78;;;;;;;;;;5031872;28;20387;-87
2022/10/26 04:34:17;;;;;;;8.50;7.60;;;;;;;;;;5022373;28;20788;-86
2022/10/26 04:36:43;;;;;;;7.30;6.60;;;;;;;;;;5014095;28;20389;-86
2022/10/26 04:39:09;;;;;;;7.70;6.30;;;;;;;;;;5033075;28;20387;-86
2022/10/26 04:41:38;;;;;;;6.85;6.32;;;;;;;;;;5032792;28;20407;-86
2022/10/26 04:44:04;;;;;;;7.82;6.75;;;;;;;;;;5033001;28;20387;-86
2022/10/26 04:46:30;;;;;;;8.57;6.90;;;;;;;;;;5032989;28;20453;-86
2022/10/26 04:48:56;;;;;;;8.77;6.30;;;;;;;;;;5032853;28;20441;-86
2022/10/26 04:51:25;;;;;;;6.88;6.22;;;;;;;;;;5033024;28;20898;-86
2022/10/26 04:53:53;;;;;;;6.63;6.03;;;;;;;;;;5032801;28;20375;-85
2022/10/26 04:56:26;;;;;;;8.00;6.90;;;;;;;;;;5032691;28;20379;-86
2022/10/26 04:58:55;;;;;;;6.90;6.25;;;;;;;;;;5032634;28;20444;-86
2022/10/26 05:01:24;;;;;;;7.13;6.22;;;;;;;;;;5032429;28;20397;-86
2022/10/26 05:03:51;;;;;;;6.72;6.03;;;;;;;;;;5016374;28;20385;-86
2022/10/26 05:06:18;;;;;;;6.68;5.93;;;;;;;;;;5014021;28;20387;-86
2022/10/26 05:08:47;;;;;;;6.63;6.03;;;;;;;;;;5013231;28;20455;-86
2022/10/26 05:11:15;;;;;;;6.88;6.18;;;;;;;;;;5011143;28;20369;-87
2022/10/26 05:13:53;;;;;;;8.27;6.97;;;;;;;;;;5023472;28;20441;-87
2022/10/26 05:16:19;;;;;;;7.22;6.60;;;;;;;;;;5031451;28;20375;-87
2022/10/26 05:18:48;;;;;;;6.63;6.07;;;;;;;;;;5030563;28;20375;-86
2022/10/26 05:21:18;;;;;;;6.80;6.20;;;;;;;;;;5008732;28;20476;-86
2022/10/26 05:23:54;;;;;;;6.93;6.32;;;;;;;;;;5010467;28;20380;-86
2022/10/26 05:26:21;;;;;;;7.50;6.80;;;;;;;;;;5012362;28;20807;-86
2022/10/26 05:28:47;;;;;;;7.47;6.47;;;;;;;;;;5012473;28;20373;-87
2022/10/26 05:31:13;;;;;;;7.07;6.38;;;;;;;;;;5027422;28;20379;-86
2022/10/26 05:33:39;;;;;;;6.93;6.10;;;;;;;;;;5030737;28;20386;-87
2022/10/26 05:36:05;;;;;;;8.43;7.63;;;;;;;;;;5031464;28;20383;-87
2022/10/26 05:38:31;;;;;;;7.03;6.35;;;;;;;;;;5032019;28;20375;-87
2022/10/26 05:41:01;;;;;;;6.90;6.30;;;;;;;;;;5024998;28;20376;-87
2022/10/26 05:43:27;;;;;;;7.22;6.60;;;;;;;;;;5030560;28;20403;-87
2022/10/26 05:45:53;;;;;;;7.55;6.85;;;;;;;;;;5031695;28;20375;-87
2022/10/26 05:48:20;;;;;;;8.15;7.35;;;;;;;;;;5032024;28;20375;-87
2022/10/26 05:50:46;;;;;;;9.00;8.20;;;;;;;;;;5032136;28;20872;-87
2022/10/26 05:53:12;;;;;;;10.30;9.38;;;;;;;;;;5032159;28;20387;-87
2022/10/26 05:55:39;;;;;;;10.02;8.18;;;;;;;;;;5031919;28;20387;-87
2022/10/26 05:58:09;;;;;;;8.00;7.20;;;;;;;;;;5032046;28;20383;-87
2022/10/26 06:00:35;;;;;;;8.13;7.38;;;;;;;;;;5031629;28;20390;-88
2022/10/26 06:03:27;;;;;;;9.18;8.00;;;;;;;;;;5031802;28;20418;-87
2022/10/26 06:05:55;;;;;;;9.10;8.27;;;;;;;;;;5016199;28;20379;-87
2022/10/26 06:08:21;;;;;;;8.02;7.43;;;;;;;;;;5025623;28;20373;-88
2022/10/26 06:10:48;;;;;;;8.68;7.38;;;;;;;;;;5027465;28;20387;-87
2022/10/26 06:13:14;;;;;;;10.55;9.30;;;;;;;;;;5031880;28;20474;-86
2022/10/26 06:15:56;;;;;;;8.40;7.53;;;;;;;;;;5031884;28;20375;-86
2022/10/26 06:18:29;;;;;;;10.02;9.02;;;;;;;;;;5034102;28;20383;-86
2022/10/26 06:20:58;;;;;;;9.52;8.10;;;;;;;;;;5031529;28;20387;-86
2022/10/26 06:23:27;;;;;;;10.18;8.38;;;;;;;;;;5032214;28;20796;-85
2022/10/26 06:25:53;;;;;;;8.73;7.82;;;;;;;;;;5032923;28;20403;-85
2022/10/26 06:28:30;;;;;;;9.73;8.85;;;;;;;;;;5031788;28;20406;-87
2022/10/26 06:30:57;;;;;;;9.70;8.90;;;;;;;;;;5031590;28;20733;-85
2022/10/26 06:33:31;;;;;;;10.57;9.68;;;;;;;;;;5031593;28;20419;-90
2022/10/26 06:35:57;;;;;;;10.38;9.40;;;;;;;;;;5029863;28;20379;-92
2022/10/26 06:38:27;;;;;;;9.55;8.75;;;;;;;;;;5011833;28;20716;-91
2022/10/26 06:40:55;;;;;;;7.85;7.25;;;;;;;;;;5022952;28;20457;-90
2022/10/26 06:43:31;;;;;;;8.40;7.60;;;;;;;;;;5004263;28;20820;-91
2022/10/26 06:46:05;;;;;;;8.10;7.43;;;;;;;;;;5022899;28;20384;-91
2022/10/26 06:48:40;;;;;;;8.52;7.63;;;;;;;;;;5031374;28;20379;-90
2022/10/26 06:51:14;;;;;;;9.57;8.63;;;;;;;;;;5031467;28;20500;-93
2022/10/26 06:54:04;;;;;;;7.72;7.13;;;;;;;;;;5031803;28;20748;-90
2022/10/26 06:56:30;;;;;;;7.43;6.77;;;;;;;;;;5021322;28;20391;-90
2022/10/26 06:59:01;;;;;;;7.75;7.03;;;;;;;;;;5020286;28;20520;-91
2022/10/26 07:01:30;;;;;;;7.72;7.05;;;;;;;;;;5020597;28;21087;-90
2022/10/26 07:03:56;;;;;;;7.70;7.00;;;;;;;;;;5015181;28;20389;-91
2022/10/26 07:06:27;;;;;;;8.95;7.38;;;;;;;;;;5026416;28;20375;-93
2022/10/26 07:08:56;;;;;;;7.72;7.03;;;;;;;;;;5030943;28;20377;-90
2022/10/26 07:11:22;;;;;;;8.73;7.80;;;;;;;;;;5015004;28;20389;-91
2022/10/26 07:13:50;;;;;;;8.20;7.38;;;;;;;;;;5015023;28;20454;-91
2022/10/26 07:16:16;;;;;;;7.88;7.22;;;;;;;;;;5033616;28;20379;-91
2022/10/26 07:18:42;;;;;;;7.43;6.83;;;;;;;;;;5034670;28;20429;-90
2022/10/26 07:21:09;;;;;;;7.50;6.82;;;;;;;;;;5034416;28;20876;-91
2022/10/26 07:23:44;;;;;;;8.45;7.70;;;;;;;;;;5034896;28;20398;-91
2022/10/26 07:26:10;;;;;;;8.20;7.50;;;;;;;;;;5034428;28;20387;-90
2022/10/26 07:28:39;;;;;;;8.33;7.63;;;;;;;;;;5034432;28;20387;-91
2022/10/26 07:31:08;;;;;;;8.27;7.57;;;;;;;;;;5033728;28;20393;-90
2022/10/26 07:33:34;;;;;;;8.48;7.78;;;;;;;;;;5021879;28;20406;-90
2022/10/26 07:36:00;;;;;;;8.63;7.82;;;;;;;;;;5035055;28;20739;-92
2022/10/26 07:38:31;;;;;;;9.45;8.65;;;;;;;;;;5034097;28;20474;-90
2022/10/26 07:40:57;;;;;;;9.88;8.50;;;;;;;;;;5034450;28;20418;-91
2022/10/26 07:43:44;;;;;;;9.57;8.68;;;;;;;;;;5025731;28;20458;-91
2022/10/26 07:46:16;;;;;;;10.20;9.23;;;;;;;;;;5024608;28;20514;-91
2022/10/26 07:48:42;;;;;;;10.02;9.23;;;;;;;;;;5015793;28;20877;-91
2022/10/26 07:51:08;;;;;;;10.85;9.73;;;;;;;;;;5013891;28;20400;-92
2022/10/26 07:53:34;;;;;;;14.02;12.77;;;;;;;;;;5014060;28;20381;-92
2022/10/26 07:56:03;;;;;;;14.13;12.10;;;;;;;;;;5014305;28;20388;-92
2022/10/26 07:58:29;;;;;;;11.25;10.32;;;;;;;;;;5030708;28;20382;-92
2022/10/26 08:09:43;;;;;;;11.32;10.15;;;;;;;;;;4972598;28;20769;-91
2022/10/26 08:12:38;;;;;;;11.23;10.32;;;;;;;;;;5030256;28;20400;-92
2022/10/26 08:19:10;;;;;;;11.88;10.88;;;;;;;;;;4995044;28;20738;-93
2022/10/26 08:21:37;;;;;;;13.13;11.88;;;;;;;;;;5008032;28;20698;-95
2022/10/26 08:24:40;;;;;;;14.77;13.27;;;;;;;;;;5019575;28;20463;-92
2022/10/26 08:34:31;;;;;;;11.27;10.23;;;;;;;;;;4961366;28;20386;-92
2022/10/26 08:46:17;;;;;;;10.27;9.30;;;;;;;;;;5787597;23;20440;-91
2022/10/26 08:49:08;;;;;;;9.43;8.52;;;;;;;;;;4961574;28;20399;-91
2022/10/26 08:52:17;;;;;;;;;;;;;;;;;;;;;
2022/10/26 08:55:06;;;;;;;8.93;8.13;;;;;;;;;;5012678;28;20384;-91
2022/10/26 09:03:54;;;;;;;12.48;9.32;;;;;;;;;;4920085;29;20407;-91
2022/10/26 09:06:28;;;;;;;12.20;8.57;;;;;;;;;;4933200;29;20905;-91
2022/10/26 09:09:21;;;;;;;8.50;7.57;;;;;;;;;;4933026;29;20490;-91
2022/10/26 09:12:18;;;;;;;12.02;8.80;;;;;;;;;;4930502;29;20391;-92
2022/10/26 09:15:05;;;;;;;13.20;9.77;;;;;;;;;;4926218;29;20461;-90
2022/10/26 09:17:40;;;;;;;13.38;9.48;;;;;;;;;;4921373;29;20387;-89
2022/10/26 09:20:33;;;;;;;8.85;6.95;;;;;;;;;;4932636;29;20911;-90
2022/10/26 09:23:34;;;;;;;6.88;4.63;;;;;;;;;;4917269;29;20412;-90
2022/10/26 09:32:37;;;;;;;4.65;3.42;;;;;;;;;;4926580;29;20896;-91
2022/10/26 09:35:24;;;;;;;5.88;3.35;;;;;;;;;;4918865;29;20885;-91
2022/10/26 09:38:15;;;;;;;3.53;3.22;;;;;;;;;;4936891;29;20905;-91
2022/10/26 09:40:54;;;;;;;;;;;;;;;;;;;;;
2022/10/26 09:43:42;;;;;;;;;;;;;;;;;;;;;
2022/10/26 09:49:36;;;;;;;5.47;3.20;;;;;;;;;;4929736;29;20392;-90
2022/10/26 09:52:30;;;;;;;4.55;3.22;;;;;;;;;;4905434;29;20793;-92
2022/10/26 10:13:28;;;;;;;7.32;3.55;;;;;;;;;;5037917;23;20430;-93
2022/10/26 10:16:21;;;;;;;7.43;3.40;;;;;;;;;;5020597;28;20386;-91
2022/10/26 10:19:22;;;;;;;5.60;3.10;;;;;;;;;;5010074;28;20389;-90
2022/10/26 10:33:41;;;;;;;5.75;3.40;;;;;;;;;;5856970;23;20433;-88
2022/10/26 10:36:09;;;;;;;4.97;3.00;;;;;;;;;;5041873;28;20380;-88
2022/10/26 10:38:43;;;;;;;4.97;2.90;;;;;;;;;;5055987;28;20431;-86
2022/10/26 10:41:21;;;;;;;3.75;2.75;;;;;;;;;;5055604;28;20374;-87
2022/10/26 10:43:48;;;;;;;5.82;3.28;;;;;;;;;;5049981;28;20787;-87
2022/10/26 10:46:29;;;;;;;4.25;3.05;;;;;;;;;;5051854;28;20399;-88
2022/10/26 10:49:03;;;;;;;5.50;2.90;;;;;;;;;;5031307;28;20385;-88
2022/10/26 10:51:30;;;;;;;4.50;3.10;;;;;;;;;;5042310;28;20456;-88
2022/10/26 10:53:57;;;;;;;5.57;2.97;;;;;;;;;;5055007;28;20469;-87
2022/10/26 10:56:37;;;;;;;4.88;2.72;;;;;;;;;;5054981;28;20377;-86
2022/10/26 10:59:22;;;;;;;6.73;2.43;;;;;;;;;;5054903;28;20373;-88
2022/10/26 11:02:18;;;;;;;4.90;2.87;;;;;;;;;;5045923;28;20411;-86
2022/10/26 11:04:46;;;;;;;6.45;2.50;;;;;;;;;;5024961;28;20742;-87
2022/10/26 11:07:14;;;;;;;7.93;3.08;;;;;;;;;;5054786;28;20373;-87
2022/10/26 11:09:41;;;;;;;4.90;2.75;;;;;;;;;;5054835;28;20405;-88
2022/10/26 11:12:14;;;;;;;6.22;2.70;;;;;;;;;;5054861;28;20869;-87
2022/10/26 11:14:42;;;;;;;6.30;2.85;;;;;;;;;;5054723;28;20374;-88
2022/10/26 11:17:13;;;;;;;5.22;2.67;;;;;;;;;;5054677;28;20435;-87
2022/10/26 11:19:44;;;;;;;4.68;2.80;;;;;;;;;;5054853;28;20424;-88
2022/10/26 11:22:13;;;;;;;6.53;3.63;;;;;;;;;;5054467;28;20413;-89
2022/10/26 11:24:39;;;;;;;5.70;2.50;;;;;;;;;;5054447;28;20381;-88
2022/10/26 11:27:21;;;;;;;5.15;2.80;;;;;;;;;;5054480;28;20460;-88
2022/10/26 11:29:51;;;;;;;5.80;2.88;;;;;;;;;;5054379;28;20386;-87
2022/10/26 11:32:20;;;;;;;4.55;2.80;;;;;;;;;;5054255;28;20382;-88
2022/10/26 11:34:46;;;;;;;4.70;2.40;;;;;;;;;;5054097;28;20385;-88
2022/10/26 11:37:31;;;;;;;5.50;2.60;;;;;;;;;;5054260;28;20436;-89
2022/10/26 11:40:02;;;;;;;4.93;2.75;;;;;;;;;;5042465;28;20374;-87
2022/10/26 11:42:48;;;;;;;6.95;2.70;;;;;;;;;;5053881;28;20401;-88
2022/10/26 11:45:19;;;;;;;6.82;2.88;;;;;;;;;;5053602;28;20385;-87
2022/10/26 11:47:51;;;;;;;5.22;2.70;;;;;;;;;;5054442;28;20385;-88
2022/10/26 11:50:29;;;;;;;7.28;2.90;;;;;;;;;;5046704;28;20381;-88
2022/10/26 11:53:02;;;;;;;6.43;2.63;;;;;;;;;;5053855;28;20542;-88
2022/10/26 11:55:28;;;;;;;6.32;2.90;;;;;;;;;;5036306;28;20413;-88
2022/10/26 11:57:54;;;;;;;8.32;2.97;;;;;;;;;;5053906;28;20476;-88
2022/10/26 12:00:21;;;;;;;5.63;3.10;;;;;;;;;;5053869;28;20377;-87
2022/10/26 12:02:53;;;;;;;6.90;2.80;;;;;;;;;;5053735;28;20429;-87
2022/10/26 12:05:24;;;;;;;6.70;2.80;;;;;;;;;;5048367;28;20379;-87
2022/10/26 12:07:53;;;;;;;6.00;2.53;;;;;;;;;;5053623;28;20378;-87
2022/10/26 12:10:32;;;;;;;7.68;2.70;;;;;;;;;;5053508;28;20858;-87
2022/10/26 12:13:13;;;;;;;5.68;2.38;;;;;;;;;;5053474;28;20435;-88
2022/10/26 12:15:46;;;;;;;6.47;2.75;;;;;;;;;;5058448;28;20374;-87
2022/10/26 12:18:34;;;;;;;8.93;2.85;;;;;;;;;;5054788;28;20458;-87
2022/10/26 12:21:03;;;;;;;5.45;2.65;;;;;;;;;;5053244;28;20378;-88
2022/10/26 12:23:36;;;;;;;7.28;2.63;;;;;;;;;;5053325;28;20906;-87
2022/10/26 12:26:32;;;;;;;5.35;2.67;;;;;;;;;;5053462;28;20394;-87
2022/10/26 12:29:06;;;;;;;6.15;2.58;;;;;;;;;;5017151;28;20484;-88
2022/10/26 12:31:35;;;;;;;5.47;2.65;;;;;;;;;;5051490;28;20393;-88
2022/10/26 12:34:24;;;;;;;6.20;2.70;;;;;;;;;;5045002;28;20381;-88
2022/10/26 12:37:05;;;;;;;5.80;2.75;;;;;;;;;;5004793;28;20381;-89
2022/10/26 12:39:31;;;;;;;7.38;3.00;;;;;;;;;;5044164;28;20385;-89
2022/10/26 12:41:58;;;;;;;5.70;2.88;;;;;;;;;;5053311;28;20439;-87
2022/10/26 12:44:33;;;;;;;5.70;2.75;;;;;;;;;;5052319;28;20797;-88
2022/10/26 12:47:02;;;;;;;7.85;2.78;;;;;;;;;;5052857;28;20381;-87
2022/10/26 12:49:49;;;;;;;9.52;3.20;;;;;;;;;;5051397;28;20382;-89
2022/10/26 12:52:41;;;;;;;9.07;3.00;;;;;;;;;;5044539;28;20377;-89
2022/10/26 12:55:25;;;;;;;7.77;2.70;;;;;;;;;;5031670;28;20884;-88
2022/10/26 12:58:10;;;;;;;7.00;2.67;;;;;;;;;;5052981;28;20384;-87
2022/10/26 13:00:59;;;;;;;6.60;2.78;;;;;;;;;;5052452;28;20787;-89
2022/10/26 13:03:43;;;;;;;5.82;2.88;;;;;;;;;;5004500;28;20408;-89
2022/10/26 13:06:16;;;;;;;6.30;3.05;;;;;;;;;;5043924;28;20456;-88
2022/10/26 13:08:47;;;;;;;6.90;3.20;;;;;;;;;;5052454;28;20882;-87
2022/10/26 13:11:16;;;;;;;8.05;2.90;;;;;;;;;;5052803;28;20377;-87
2022/10/26 13:13:42;;;;;;;9.82;3.22;;;;;;;;;;5052670;28;20386;-87
2022/10/26 13:16:12;;;;;;;7.32;2.80;;;;;;;;;;5052770;28;20456;-88
2022/10/26 13:18:44;;;;;;;7.90;3.60;;;;;;;;;;5052259;28;20405;-87
2022/10/26 13:21:28;;;;;;;8.13;2.87;;;;;;;;;;5052245;28;20378;-88
2022/10/26 13:24:00;;;;;;;9.70;3.45;;;;;;;;;;5052249;28;20382;-89
2022/10/26 13:26:36;;;;;;;8.70;3.07;;;;;;;;;;5052274;28;20396;-87
2022/10/26 13:29:14;;;;;;;6.37;3.00;;;;;;;;;;5052256;28;20370;-88
2022/10/26 13:31:43;;;;;;;6.13;2.72;;;;;;;;;;5052020;28;20373;-87
2022/10/26 13:34:12;;;;;;;8.57;3.23;;;;;;;;;;5052275;28;20478;-89
2022/10/26 13:36:38;;;;;;;8.10;3.20;;;;;;;;;;5052127;28;20377;-88
2022/10/26 13:39:11;;;;;;;7.67;3.00;;;;;;;;;;5043308;28;20891;-89
2022/10/26 13:41:43;;;;;;;7.68;3.13;;;;;;;;;;5034099;28;20743;-87
2022/10/26 13:44:14;;;;;;;6.60;2.97;;;;;;;;;;5052022;28;20396;-88
2022/10/26 13:46:46;;;;;;;8.27;2.90;;;;;;;;;;5051638;28;20413;-87
2022/10/26 13:49:19;;;;;;;8.05;2.90;;;;;;;;;;5051959;28;20393;-87
2022/10/26 13:51:49;;;;;;;6.78;2.83;;;;;;;;;;5052128;28;20397;-88
2022/10/26 13:54:28;;;;;;;8.68;3.08;;;;;;;;;;5051914;28;20893;-87
2022/10/26 13:56:54;;;;;;;10.25;3.50;;;;;;;;;;5034191;28;20378;-88
2022/10/26 13:59:35;;;;;;;11.18;3.78;;;;;;;;;;5035482;28;20743;-88
2022/10/26 14:02:29;;;;;;;8.73;3.38;;;;;;;;;;5045825;28;20754;-87
2022/10/26 14:05:04;;;;;;;10.88;3.40;;;;;;;;;;5041768;28;20393;-88
2022/10/26 14:07:30;;;;;;;6.75;2.88;;;;;;;;;;5054074;28;20393;-87
2022/10/26 14:09:57;;;;;;;6.57;2.97;;;;;;;;;;5055910;28;20388;-88
2022/10/26 14:12:27;;;;;;;11.63;3.50;;;;;;;;;;5055682;28;20866;-88
2022/10/26 14:14:59;;;;;;;10.85;3.50;;;;;;;;;;5055772;28;20858;-87
2022/10/26 14:17:31;;;;;;;8.82;3.30;;;;;;;;;;5055720;28;20385;-87
2022/10/26 14:19:57;;;;;;;7.75;3.30;;;;;;;;;;5055747;28;20408;-87
2022/10/26 14:22:26;;;;;;;12.33;4.43;;;;;;;;;;5055456;28;20455;-88
2022/10/26 14:24:56;;;;;;;8.70;3.75;;;;;;;;;;5042181;28;20375;-88
2022/10/26 14:27:32;;;;;;;9.38;3.10;;;;;;;;;;5051550;28;20370;-86
2022/10/26 14:30:02;;;;;;;7.75;3.17;;;;;;;;;;5055701;28;20382;-87
2022/10/26 14:32:30;;;;;;;6.40;3.00;;;;;;;;;;5055395;28;20431;-87
2022/10/26 14:35:07;;;;;;;6.68;3.00;;;;;;;;;;5055420;28;20446;-87
2022/10/26 14:37:51;;;;;;;10.15;3.33;;;;;;;;;;5055462;28;20415;-88
2022/10/26 14:40:19;;;;;;;9.77;2.95;;;;;;;;;;5046553;28;20389;-88
2022/10/26 14:42:50;;;;;;;9.60;3.40;;;;;;;;;;5052476;28;20409;-89
2022/10/26 14:45:29;;;;;;;9.30;3.10;;;;;;;;;;5044727;28;20858;-87
2022/10/26 14:48:05;;;;;;;8.38;3.47;;;;;;;;;;5055216;28;20381;-87
2022/10/26 14:50:35;;;;;;;5.40;2.90;;;;;;;;;;5055341;28;20727;-88
2022/10/26 14:53:13;;;;;;;6.90;2.90;;;;;;;;;;5038874;28;20399;-88
2022/10/26 14:55:49;;;;;;;8.95;4.55;;;;;;;;;;5029010;28;20393;-87
2022/10/26 14:58:18;;;;;;;8.52;3.60;;;;;;;;;;5054907;28;20381;-87
2022/10/26 15:00:50;;;;;;;6.63;3.15;;;;;;;;;;5054646;28;20386;-88
2022/10/26 15:03:16;;;;;;;6.47;3.20;;;;;;;;;;5054843;28;20492;-89
2022/10/26 15:05:45;;;;;;;8.40;3.30;;;;;;;;;;5054769;28;20378;-88
2022/10/26 15:08:29;;;;;;;7.75;3.50;;;;;;;;;;5042685;28;20733;-88
2022/10/26 15:11:01;;;;;;;9.70;3.30;;;;;;;;;;5039842;28;20381;-88
2022/10/26 15:13:31;;;;;;;8.50;3.10;;;;;;;;;;5055065;28;20410;-87
2022/10/26 15:16:15;;;;;;;8.90;3.35;;;;;;;;;;5054618;28;20377;-88
2022/10/26 15:18:41;;;;;;;8.15;3.45;;;;;;;;;;5053608;28;20373;-88
2022/10/26 15:21:33;;;;;;;8.25;3.00;;;;;;;;;;5054456;28;20747;-87
2022/10/26 15:24:02;;;;;;;6.47;3.25;;;;;;;;;;5041149;28;20495;-87
2022/10/26 15:26:29;;;;;;;9.30;3.30;;;;;;;;;;5054759;28;20473;-87
2022/10/26 15:28:58;;;;;;;8.73;3.63;;;;;;;;;;5054580;28;20724;-88
2022/10/26 15:31:33;;;;;;;7.18;3.10;;;;;;;;;;5054205;28;20386;-88
2022/10/26 15:34:05;;;;;;;7.88;3.50;;;;;;;;;;5054229;28;20905;-88
2022/10/26 15:36:32;;;;;;;6.68;3.20;;;;;;;;;;5054246;28;20394;-88
2022/10/26 15:38:58;;;;;;;6.38;3.28;;;;;;;;;;5046396;28;20391;-87
2022/10/26 15:41:28;;;;;;;7.65;3.38;;;;;;;;;;5053543;28;20867;-87
2022/10/26 15:43:55;;;;;;;7.13;3.50;;;;;;;;;;5054326;28;20765;-87
2022/10/26 15:46:27;;;;;;;6.93;3.30;;;;;;;;;;5054225;28;20435;-87
2022/10/26 15:48:59;;;;;;;8.75;3.65;;;;;;;;;;5054169;28;20378;-88
2022/10/26 15:51:27;;;;;;;6.68;3.42;;;;;;;;;;5053936;28;20758;-88
2022/10/26 15:53:56;;;;;;;7.57;3.80;;;;;;;;;;5040607;28;20731;-88
2022/10/26 15:56:46;;;;;;;8.90;3.80;;;;;;;;;;5053987;28;20846;-87
2022/10/26 15:59:21;;;;;;;9.95;4.43;;;;;;;;;;5028343;28;20382;-87
2022/10/26 16:01:47;;;;;;;9.05;3.78;;;;;;;;;;5042070;28;20887;-88
2022/10/26 16:04:15;;;;;;;8.60;3.65;;;;;;;;;;5054095;28;20402;-89
2022/10/26 16:06:45;;;;;;;9.50;4.30;;;;;;;;;;5053626;28;20381;-88
2022/10/26 16:09:17;;;;;;;11.43;4.00;;;;;;;;;;5032270;28;20377;-89
2022/10/26 16:11:52;;;;;;;7.82;3.88;;;;;;;;;;5053740;28;20374;-88
2022/10/26 16:14:21;;;;;;;13.32;4.90;;;;;;;;;;5054103;28;20431;-88
2022/10/26 16:16:47;;;;;;;13.35;5.28;;;;;;;;;;5053793;28;20811;-87
2022/10/26 16:19:19;;;;;;;9.95;4.95;;;;;;;;;;5054389;28;20413;-88
2022/10/26 16:21:50;;;;;;;11.93;4.57;;;;;;;;;;5049544;28;20825;-88
2022/10/26 16:24:19;;;;;;;9.68;4.40;;;;;;;;;;5050642;28;20472;-87
2022/10/26 16:26:51;;;;;;;10.50;4.40;;;;;;;;;;5053355;28;20448;-87
2022/10/26 16:29:20;;;;;;;11.83;4.90;;;;;;;;;;5053547;28;20373;-87
2022/10/26 16:31:52;;;;;;;13.20;5.30;;;;;;;;;;5052613;28;20419;-88
2022/10/26 16:34:18;;;;;;;18.05;5.35;;;;;;;;;;5053350;28;20397;-87
2022/10/26 16:36:44;;;;;;;13.93;5.28;;;;;;;;;;5053281;28;20431;-87
2022/10/26 16:39:11;;;;;;;12.60;5.37;;;;;;;;;;5044343;28;20887;-87
2022/10/26 16:41:37;;;;;;;16.87;5.80;;;;;;;;;;5035119;28;20385;-88
2022/10/26 16:44:03;;;;;;;15.40;6.03;;;;;;;;;;5053036;28;20373;-87
2022/10/26 16:46:29;;;;;;;17.25;6.22;;;;;;;;;;5053211;28;20739;-87
2022/10/26 16:48:55;;;;;;;14.98;6.13;;;;;;;;;;5053104;28;20373;-87
2022/10/26 16:51:23;;;;;;;16.92;6.50;;;;;;;;;;5052771;28;20381;-87
2022/10/26 16:53:51;;;;;;;21.90;7.50;;;;;;;;;;5052821;28;20466;-87
2022/10/26 16:56:18;;;;;;;20.60;7.30;;;;;;;;;;5052725;28;20885;-88
2022/10/26 16:58:44;;;;;;;9.80;5.60;;;;;;;;;;5051782;28;20385;-88
2022/10/26 17:01:12;;;;;;;11.68;6.40;;;;;;;;;;5042871;28;20377;-87
2022/10/26 17:03:38;;;;;;;12.85;7.32;;;;;;;;;;5050011;28;20893;-87
2022/10/26 17:06:05;;;;;;;9.63;6.07;;;;;;;;;;5041521;28;20389;-88
2022/10/26 17:08:32;;;;;;;14.52;5.82;;;;;;;;;;5039997;28;20389;-88
2022/10/26 17:11:02;;;;;;;11.45;5.55;;;;;;;;;;5051977;28;20385;-84
2022/10/26 17:13:28;;;;;;;11.38;5.47;;;;;;;;;;5052509;28;20500;-86
2022/10/26 17:15:54;;;;;;;10.20;5.18;;;;;;;;;;5052371;28;20476;-85
2022/10/26 17:18:20;;;;;;;8.73;5.32;;;;;;;;;;5052428;28;20381;-86
2022/10/26 17:20:50;;;;;;;7.35;5.00;;;;;;;;;;5052170;28;20396;-86
2022/10/26 17:23:16;;;;;;;10.73;5.82;;;;;;;;;;5034784;28;20902;-85
2022/10/26 17:25:42;;;;;;;9.85;5.95;;;;;;;;;;5052243;28;20377;-87
2022/10/26 17:28:08;;;;;;;10.93;5.33;;;;;;;;;;5052183;28;20373;-85
2022/10/26 17:30:34;;;;;;;10.63;5.07;;;;;;;;;;5052293;28;20376;-87
2022/10/26 17:33:01;;;;;;;6.83;5.13;;;;;;;;;;5052142;28;20507;-86
2022/10/26 17:35:27;;;;;;;10.82;6.05;;;;;;;;;;5052002;28;20394;-85
2022/10/26 17:37:53;;;;;;;8.35;6.32;;;;;;;;;;5052019;28;20523;-85
2022/10/26 17:40:19;;;;;;;11.17;7.13;;;;;;;;;;5043316;28;20388;-84
2022/10/26 17:42:45;;;;;;;9.93;6.70;;;;;;;;;;5051313;28;20887;-84
2022/10/26 17:45:11;;;;;;;13.27;6.53;;;;;;;;;;5052031;28;20388;-84
2022/10/26 17:47:37;;;;;;;13.45;6.78;;;;;;;;;;5052154;28;20382;-83
2022/10/26 17:50:03;;;;;;;10.40;6.73;;;;;;;;;;5051971;28;20397;-84
2022/10/26 17:52:29;;;;;;;11.32;6.70;;;;;;;;;;5051862;28;20389;-84
2022/10/26 17:54:55;;;;;;;15.80;8.95;;;;;;;;;;5051859;28;20386;-85
2022/10/26 17:57:21;;;;;;;21.80;15.52;;;;;;;;;;5052158;28;20389;-84
2022/10/26 17:59:47;;;;;;;10.20;8.25;;;;;;;;;;5051897;28;20408;-84
2022/10/26 18:02:22;;;;;;;8.85;6.43;;;;;;;;;;5051676;28;21010;-85
2022/10/26 18:04:48;;;;;;;10.27;4.82;;;;;;;;;;5044283;28;20381;-84
2022/10/26 18:07:14;;;;;;;7.75;6.13;;;;;;;;;;5041692;28;20392;-84
2022/10/26 18:09:40;;;;;;;8.93;6.40;;;;;;;;;;5051981;28;20427;-84
2022/10/26 18:12:06;;;;;;;11.80;6.60;;;;;;;;;;5051689;28;20378;-84
2022/10/26 18:14:32;;;;;;;10.30;6.43;;;;;;;;;;5051852;28;20897;-83
2022/10/26 18:16:58;;;;;;;8.13;4.40;;;;;;;;;;5051795;28;20377;-83
2022/10/26 18:19:36;;;;;;;11.13;4.80;;;;;;;;;;5047371;28;20942;-82
2022/10/26 18:22:01;;;;;;;7.05;5.05;;;;;;;;;;5039763;28;20504;-83
2022/10/26 18:24:27;;;;;;;11.32;5.95;;;;;;;;;;5051813;28;20918;-82
2022/10/26 18:26:53;;;;;;;14.98;6.68;;;;;;;;;;5051726;28;20386;-83
2022/10/26 18:29:19;;;;;;;9.57;8.50;;;;;;;;;;5051585;28;20409;-82
2022/10/26 18:31:45;;;;;;;13.63;7.63;;;;;;;;;;5051541;28;20382;-82
2022/10/26 18:34:11;;;;;;;11.80;7.28;;;;;;;;;;5051555;28;20404;-83
2022/10/26 18:36:37;;;;;;;10.40;6.82;;;;;;;;;;5052002;28;20377;-83
2022/10/26 18:39:03;;;;;;;9.40;6.40;;;;;;;;;;5043028;28;20411;-83
2022/10/26 18:41:29;;;;;;;13.18;6.65;;;;;;;;;;5051590;28;20384;-83
2022/10/26 18:43:59;;;;;;;13.60;7.50;;;;;;;;;;5051406;28;20405;-83
2022/10/26 18:46:27;;;;;;;11.73;7.38;;;;;;;;;;5051434;28;20378;-83
2022/10/26 18:48:53;;;;;;;38.75;24.38;;;;;;;;;;5051382;28;20381;-83
2022/10/26 18:51:20;;;;;;;32.38;19.63;;;;;;;;;;5051216;28;20378;-82
2022/10/26 18:53:47;;;;;;;28.05;16.83;;;;;;;;;;5053795;28;20392;-83
2022/10/26 18:56:17;;;;;;;18.30;13.00;;;;;;;;;;5054988;28;20899;-83
2022/10/26 18:58:44;;;;;;;20.38;11.75;;;;;;;;;;5040517;28;20391;-84
2022/10/26 19:01:14;;;;;;;12.33;9.30;;;;;;;;;;5054830;28;20378;-83
2022/10/26 19:03:41;;;;;;;15.57;7.50;;;;;;;;;;5054797;28;20440;-81
2022/10/26 19:06:08;;;;;;;10.30;7.32;;;;;;;;;;5054857;28;20378;-82
2022/10/26 19:08:34;;;;;;;12.65;7.70;;;;;;;;;;5052185;28;20427;-82
2022/10/26 19:11:01;;;;;;;10.43;7.50;;;;;;;;;;5025008;28;20411;-83
2022/10/26 19:13:27;;;;;;;14.93;7.40;;;;;;;;;;5028719;28;20967;-83
2022/10/26 19:16:01;;;;;;;13.00;7.37;;;;;;;;;;5053619;28;20393;-83
2022/10/26 19:18:27;;;;;;;11.95;7.60;;;;;;;;;;5053909;28;20866;-83
2022/10/26 19:20:57;;;;;;;15.68;8.00;;;;;;;;;;5054447;28;20858;-84
2022/10/26 19:23:23;;;;;;;12.45;7.50;;;;;;;;;;5054426;28;20412;-82
2022/10/26 19:25:56;;;;;;;13.23;8.00;;;;;;;;;;5033610;28;20390;-83
2022/10/26 19:28:22;;;;;;;8.68;6.47;;;;;;;;;;5044772;28;20381;-84
2022/10/26 19:30:48;;;;;;;10.70;6.72;;;;;;;;;;5035807;28;20405;-84
2022/10/26 19:33:13;;;;;;;11.80;7.07;;;;;;;;;;5029848;28;20413;-84
2022/10/26 19:35:39;;;;;;;10.53;6.27;;;;;;;;;;5030852;28;20485;-84
2022/10/26 19:38:05;;;;;;;9.38;6.13;;;;;;;;;;5035728;28;20397;-84
2022/10/26 19:40:31;;;;;;;9.93;6.13;;;;;;;;;;5018460;28;20500;-83
2022/10/26 19:42:57;;;;;;;8.70;6.10;;;;;;;;;;5033768;28;20420;-83
2022/10/26 19:45:26;;;;;;;9.80;5.83;;;;;;;;;;5031835;28;20391;-83
2022/10/26 19:47:52;;;;;;;14.32;6.70;;;;;;;;;;5032286;28;20412;-83
2022/10/26 19:50:18;;;;;;;9.27;6.20;;;;;;;;;;5036777;28;20877;-83
2022/10/26 19:52:44;;;;;;;9.95;6.22;;;;;;;;;;5032763;28;20408;-83
2022/10/26 19:55:10;;;;;;;8.30;6.10;;;;;;;;;;5029423;28;20409;-83
2022/10/26 19:57:36;;;;;;;10.43;6.35;;;;;;;;;;5025986;28;20377;-83
2022/10/26 20:00:03;;;;;;;8.07;6.10;;;;;;;;;;5022379;28;20862;-83
2022/10/26 20:02:29;;;;;;;7.85;6.15;;;;;;;;;;5028725;28;20468;-83
2022/10/26 20:05:00;;;;;;;6.88;5.68;;;;;;;;;;5023417;28;20872;-83
2022/10/26 20:07:26;;;;;;;6.43;5.30;;;;;;;;;;5024614;28;20748;-83
2022/10/26 20:09:52;;;;;;;7.80;5.30;;;;;;;;;;5023288;28;20396;-83
2022/10/26 20:12:18;;;;;;;6.05;5.40;;;;;;;;;;5033127;28;20772;-83
2022/10/26 20:14:50;;;;;;;9.80;5.90;;;;;;;;;;5026946;28;20406;-83
2022/10/26 20:17:16;;;;;;;10.88;5.63;;;;;;;;;;5025081;28;20397;-83
2022/10/26 20:19:42;;;;;;;9.80;5.60;;;;;;;;;;5029007;28;20810;-83
2022/10/26 20:22:08;;;;;;;7.68;5.65;;;;;;;;;;5029023;28;20428;-83